Terminal Aerodrome Forecast
Issued by NWS Wilmington, OH

Current Version | Previous Version | Text Only | Print | Product List | Glossary Off
Versions: 1 2 3 4 5 6 7 8 9 10 11 12 13 14 15 16 17 18 19 20 21 22 23 24 25 26 27 28 29 30 31 32 33 34 35 36 37

000
FTUS41 KILN 200500
TAFCMH
TAF
KCMH 200537Z 2006/2106 00000KT 6SM HZ BKN006 OVC060
      TEMPO 2006/2010 1 1/2SM -SHRA BR
     FM201000 07003KT 5SM BR OVC025
     FM201400 13005KT P6SM OVC025
     FM210100 VRB03KT P6SM BKN035=

USA.gov is the U.S. government's official web portal to all federal, state and local government web resources and services.